Pomona, IL (62975)

16:03 CDT le 04 septembre 2015 (GMT -0500)
SIU Physical Plant | | Change Station
CLOSE
Current Station
Stations météorologiques personnelles
Location: Carbondale, IL
Altitude: 430 ft
Stations météo à proximité

Alt. 430 ft 37.71 °N, 89.22 °W | Updated 4 minutes ago

Partiellement nuageux
Partiellement nuageux
92.4 ° F
Paraît 98 ° F
N
7.0
Vent Variable Vent de OSO
Gusts 9.0 mph

Aujourd'hui
Haut(e) -- | Bas -- ° F
--% Risque de précip.
Hier
Haut(e) -- | Bas -- ° F
Precip. -- pouce
6:29 AM 7:22 PM
Lune gibbeuse décroissante, 56% visible
Pression 29.99 pouce
Visibilité 10.0 Miles terrestres
Nuages Nuages épars 5500 ft
Nuageux 11000 ft
indice de chaleur 98 ° F
Point de rosée 69 ° F
Humidité 47%
Précipitations 0.00 pouce
Profondeur de la couche neigeuse Non disponible.
UV 2.8 sur 12
Pollen 10.80 sur 12
Qualité de l'air Non disponible.
Flu Activity Non disponible.
METAR KMDH 042052Z 00000KT 10SM SCT055 BKN110 32/21 A3000 RMK AO2 SLP153 T03220206 58012
Pression 29.99 pouce
Visibilité 10.0 Miles terrestres
Nuages Nuages épars 5500 ft
Nuageux 11000 ft
indice de chaleur 98 ° F
Point de rosée 69 ° F
Humidité 47%
Précipitations 0.00 pouce
Profondeur de la couche neigeuse Non disponible.
UV 2.8 sur 12
Pollen 10.80 sur 12
Qualité de l'air Non disponible.
Flu Activity Non disponible.
METAR KMDH 042052Z 00000KT 10SM SCT055 BKN110 32/21 A3000 RMK AO2 SLP153 T03220206 58012

10-Day Weather Forecast

×

Almanac

Astronomie

Sep. 04, 2015 Lever Coucher
Temps réel
Crépuscule civil
Crépuscule nautique
Crépuscule astronomique
Lune
Durée de lumière visible
Longueur du jour
Tomorrow will be .
, % of the Moon is Illuminated

Extrêmes aujourd'hui

State Highs State Lows

Community

WunderPhotos

Upload Photos

1,852,290 Photos téléchargées !

WunderBlogs® & News

Nearby

Qualité de l'air

  Qualité de l'air Indice de la qualité de l'air Polluant
Not available.

Épaisseur de neige

Station Depth Altitude

Activité sismique

Ville Distance Mag. Time & Date
Minimum magnitude displayed is 2.5.

Températures des eaux côtières

Lieu Température

Stations

Stations météo à proximité

Emplacement de la station Température Refroidissement éolien Point de rosée Humidité Vent Precip. Alt. Mise à jour Type